createdAt,value
2022-09-12T00:02:15.884Z,99784.84
2022-09-12T00:05:18.709Z,99785.91
2022-09-12T00:08:21.185Z,99783.38
2022-09-12T00:11:24.504Z,99783.62
2022-09-12T00:14:27.173Z,99784.84
2022-09-12T00:17:30.022Z,99776.69
2022-09-12T00:20:32.581Z,99777.25
2022-09-12T00:23:35.399Z,99785.09
2022-09-12T00:26:37.951Z,99790.25
2022-09-12T00:29:41.216Z,99792.34
2022-09-12T00:32:43.997Z,99791.00
2022-09-12T00:35:49.246Z,99784.12
2022-09-12T00:38:52.024Z,99784.38
2022-09-12T00:41:54.885Z,99780.50
2022-09-12T00:44:57.435Z,99792.97
2022-09-12T00:48:03.651Z,99788.72
2022-09-12T00:51:06.299Z,99791.72
2022-09-12T00:54:13.058Z,99793.63
2022-09-12T00:57:16.834Z,99791.47
2022-09-12T01:00:22.323Z,99783.56
2022-09-12T01:03:25.402Z,99795.47
2022-09-12T01:06:30.580Z,99787.00
2022-09-12T01:09:33.362Z,99789.03
2022-09-12T01:12:39.115Z,99788.00
2022-09-12T01:15:41.665Z,99793.25
2022-09-12T01:19:02.846Z,99788.59
2022-09-12T01:22:59.152Z,99785.69
2022-09-12T01:26:22.067Z,99783.09
2022-09-12T01:29:47.150Z,99786.28
2022-09-12T01:33:00.103Z,99794.09
2022-09-12T01:36:41.464Z,99792.06
2022-09-12T01:39:47.029Z,99784.50
2022-09-12T01:43:37.690Z,99783.75
2022-09-12T01:46:43.603Z,99775.53
2022-09-12T01:50:01.771Z,99782.09
2022-09-12T01:53:12.899Z,99780.09
2022-09-12T01:56:24.980Z,99775.97
2022-09-12T01:59:33.745Z,99771.06
2022-09-12T02:02:42.531Z,99779.37
2022-09-12T02:05:50.440Z,99773.59
2022-09-12T02:09:03.258Z,99777.25
2022-09-12T02:12:08.903Z,99772.53
2022-09-12T02:15:13.071Z,99773.81
2022-09-12T02:18:18.372Z,99772.00
2022-09-12T02:21:23.161Z,99774.03
2022-09-12T02:24:31.328Z,99773.47
2022-09-12T02:27:41.435Z,99779.66
2022-09-12T02:31:10.321Z,99782.25
2022-09-12T02:34:15.656Z,99786.28
2022-09-12T02:37:27.230Z,99785.94
2022-09-12T02:40:30.948Z,99786.13
2022-09-12T02:43:33.834Z,99782.91
2022-09-12T02:46:43.183Z,99784.56
2022-09-12T02:49:45.960Z,99784.19
2022-09-12T02:52:48.765Z,99781.75
2022-09-12T02:55:51.646Z,99791.44
2022-09-12T02:58:56.566Z,99780.75
2022-09-12T03:02:18.306Z,99791.44
2022-09-12T03:05:41.197Z,99790.34
2022-09-12T03:09:00.348Z,99798.38
2022-09-12T03:12:28.090Z,99797.09
2022-09-12T03:15:49.802Z,99787.69
2022-09-12T03:19:03.784Z,99794.87
2022-09-12T03:22:25.370Z,99787.69
2022-09-12T03:25:32.555Z,99803.16
2022-09-12T03:28:35.904Z,99798.28
2022-09-12T03:31:49.029Z,99794.41
2022-09-12T03:34:51.814Z,99803.16
2022-09-12T03:37:54.317Z,99806.41
2022-09-12T03:40:57.068Z,99803.84
2022-09-12T03:43:59.674Z,99798.94
2022-09-12T03:47:02.631Z,99798.81
2022-09-12T03:50:05.543Z,99799.00
2022-09-12T03:53:08.493Z,99799.00
2022-09-12T03:56:12.518Z,99797.66
2022-09-12T03:59:15.306Z,99798.88
2022-09-12T04:02:17.877Z,99797.72
2022-09-12T04:05:20.750Z,99799.56
2022-09-12T04:08:23.217Z,99796.63
2022-09-12T04:11:26.095Z,99795.78
2022-09-12T04:14:28.550Z,99808.56
2022-09-12T04:17:31.321Z,99813.53
2022-09-12T04:20:33.848Z,99815.88
2022-09-12T04:23:36.797Z,99816.34
2022-09-12T04:26:39.405Z,99803.25
2022-09-12T04:29:42.164Z,99809.78
2022-09-12T04:32:44.684Z,99808.88
2022-09-12T04:35:47.984Z,99816.16
2022-09-12T04:38:51.110Z,99810.72
2022-09-12T04:41:54.344Z,99809.69
2022-09-12T04:44:56.820Z,99805.53
2022-09-12T04:47:59.810Z,99801.88
2022-09-12T04:51:16.959Z,99817.41
2022-09-12T04:54:20.047Z,99817.06
2022-09-12T04:57:22.507Z,99816.63
2022-09-12T05:00:25.389Z,99806.84
2022-09-12T05:03:28.315Z,99808.69
2022-09-12T05:06:34.423Z,99811.72
2022-09-12T05:09:36.954Z,99816.19
2022-09-12T05:12:39.762Z,99810.72
2022-09-12T05:15:42.373Z,99816.84
2022-09-12T05:18:47.247Z,99826.25
2022-09-12T05:21:49.841Z,99831.69
2022-09-12T05:24:52.638Z,99833.41
2022-09-12T05:27:55.100Z,99831.47
2022-09-12T05:31:03.537Z,99839.69
2022-09-12T05:34:07.306Z,99840.41
2022-09-12T05:37:10.121Z,99841.22
2022-09-12T05:40:16.174Z,99841.53
2022-09-12T05:43:20.363Z,99843.44
2022-09-12T05:46:28.241Z,99849.53
2022-09-12T05:49:31.082Z,99850.94
2022-09-12T05:52:33.530Z,99859.06
2022-09-12T05:55:36.750Z,99848.37
2022-09-12T05:58:41.741Z,99851.69
2022-09-12T06:01:45.591Z,99850.84
2022-09-12T06:04:49.785Z,99854.03
2022-09-12T06:07:52.285Z,99855.00
2022-09-12T06:11:02.222Z,99854.09
2022-09-12T06:14:05.172Z,99860.47
2022-09-12T06:17:07.915Z,99864.53
2022-09-12T06:20:10.516Z,99857.66
2022-09-12T06:23:13.329Z,99859.66
2022-09-12T06:26:17.493Z,99861.47
2022-09-12T06:29:20.533Z,99864.75
2022-09-12T06:32:23.045Z,99862.63
2022-09-12T06:35:25.922Z,99871.13
2022-09-12T06:38:28.342Z,99869.06
2022-09-12T06:41:31.871Z,99871.66
2022-09-12T06:44:34.379Z,99862.81
2022-09-12T06:47:37.331Z,99865.31
2022-09-12T06:50:39.881Z,99866.84
2022-09-12T06:53:44.319Z,99867.75
2022-09-12T06:56:46.907Z,99863.25
2022-09-12T06:59:50.685Z,99869.28
2022-09-12T07:02:59.042Z,99871.06
2022-09-12T07:06:07.624Z,99868.34
2022-09-12T07:09:12.773Z,99867.19
2022-09-12T07:12:15.653Z,99878.87
2022-09-12T07:15:18.172Z,99878.66
2022-09-12T07:18:22.131Z,99877.44
2022-09-12T07:21:24.922Z,99873.72
2022-09-12T07:24:27.769Z,99869.63
2022-09-12T07:27:30.296Z,99885.63
2022-09-12T07:30:33.404Z,99888.34
2022-09-12T07:33:35.986Z,99879.09
2022-09-12T07:36:39.211Z,99887.37
2022-09-12T07:39:42.241Z,99894.41
2022-09-12T07:42:45.046Z,99902.31
2022-09-12T07:45:47.694Z,99889.66
2022-09-12T07:48:51.733Z,99888.63
2022-09-12T07:51:54.325Z,99894.41
2022-09-12T07:54:57.163Z,99892.09
2022-09-12T07:57:59.823Z,99893.50
2022-09-12T08:01:14.227Z,99889.25
2022-09-12T08:04:17.052Z,99884.31
2022-09-12T08:07:20.094Z,99888.13
2022-09-12T08:10:23.112Z,99880.66
2022-09-12T08:13:26.938Z,99880.16
2022-09-12T08:16:31.238Z,99879.66
2022-09-12T08:19:33.867Z,99875.88
2022-09-12T08:22:36.684Z,99881.88
2022-09-12T08:25:39.228Z,99889.63
2022-09-12T08:28:45.660Z,99896.31
2022-09-12T08:31:48.173Z,99897.13
2022-09-12T08:34:51.010Z,99891.66
2022-09-12T08:37:53.559Z,99879.91
2022-09-12T08:41:11.888Z,99883.09
2022-09-12T08:44:43.800Z,99869.25
2022-09-12T08:47:47.156Z,99871.06
2022-09-12T08:50:50.237Z,99876.63
2022-09-12T08:53:54.691Z,99866.78
2022-09-12T08:57:01.491Z,99873.94
2022-09-12T09:00:06.191Z,99871.53
2022-09-12T09:03:34.587Z,99880.22
2022-09-12T09:06:40.833Z,99877.44
2022-09-12T09:10:17.832Z,99861.75
2022-09-12T09:13:59.218Z,99865.53
2022-09-12T09:17:03.461Z,99867.53
2022-09-12T09:20:44.114Z,99872.56
2022-09-12T09:23:51.006Z,99862.03
2022-09-12T09:27:37.031Z,99861.13
2022-09-12T09:30:35.981Z,99868.59
2022-09-12T09:33:38.807Z,99872.72
2022-09-12T09:37:03.143Z,99873.03
2022-09-12T09:40:35.213Z,99868.09
2022-09-12T09:43:38.331Z,99869.66
2022-09-12T09:46:41.298Z,99866.09
2022-09-12T09:49:44.310Z,99865.66
2022-09-12T09:52:47.576Z,99868.25
2022-09-12T09:55:50.147Z,99868.59
2022-09-12T09:58:53.175Z,99874.25
2022-09-12T10:02:08.736Z,99866.53
2022-09-12T10:05:17.280Z,99858.97
2022-09-12T10:08:22.271Z,99870.59
2022-09-12T10:11:28.472Z,99857.81
2022-09-12T10:14:40.771Z,99855.59
2022-09-12T10:17:44.748Z,99853.03
2022-09-12T10:20:47.248Z,99859.59
2022-09-12T10:24:00.194Z,99859.75
2022-09-12T10:27:11.700Z,99866.25
2022-09-12T10:30:14.550Z,99859.41
2022-09-12T10:33:17.161Z,99858.84
2022-09-12T10:36:21.208Z,99864.47
2022-09-12T10:39:23.961Z,99869.19
2022-09-12T10:42:47.531Z,99871.91
2022-09-12T10:45:50.327Z,99869.66
2022-09-12T10:49:22.830Z,99861.25
2022-09-12T10:52:25.707Z,99864.63
2022-09-12T10:55:34.416Z,99862.88
2022-09-12T10:58:56.155Z,99868.84
2022-09-12T11:02:01.902Z,99865.25
2022-09-12T11:05:14.215Z,99863.03
2022-09-12T11:08:40.494Z,99846.81
2022-09-12T11:12:14.029Z,99852.44
2022-09-12T11:15:35.560Z,99847.87
2022-09-12T11:18:45.024Z,99838.00
2022-09-12T11:22:06.027Z,99834.84
2022-09-12T11:25:35.132Z,99835.03
2022-09-12T11:28:53.217Z,99841.41
2022-09-12T11:31:55.637Z,99832.59
2022-09-12T11:35:13.926Z,99830.16
2022-09-12T11:38:24.538Z,99837.06
2022-09-12T11:41:33.822Z,99824.09
2022-09-12T11:44:40.323Z,99825.16
2022-09-12T11:47:46.914Z,99830.41
2022-09-12T11:50:49.446Z,99831.66
2022-09-12T11:54:02.357Z,99825.91
2022-09-12T11:57:26.450Z,99833.63
2022-09-12T12:00:34.189Z,99840.91
2022-09-12T12:03:44.150Z,99839.41
2022-09-12T12:06:58.047Z,99858.19
2022-09-12T12:10:01.003Z,99853.72
2022-09-12T12:13:23.207Z,99848.56
2022-09-12T12:16:38.139Z,99857.16
2022-09-12T12:19:40.736Z,99848.19
2022-09-12T12:22:53.912Z,99846.31
2022-09-12T12:25:58.838Z,99835.59
2022-09-12T12:29:01.719Z,99840.09
2022-09-12T12:32:04.130Z,99838.81
2022-09-12T12:35:38.162Z,99823.69
2022-09-12T12:38:41.143Z,99817.06
2022-09-12T12:41:45.311Z,99820.91
2022-09-12T12:44:50.197Z,99810.13
2022-09-12T12:48:08.996Z,99809.53
2022-09-12T12:51:17.432Z,99817.47
2022-09-12T12:54:30.483Z,99802.03
2022-09-12T12:57:46.745Z,99808.69
2022-09-12T13:01:04.043Z,99808.34
2022-09-12T13:04:19.111Z,99810.37
2022-09-12T13:07:28.927Z,99799.22
2022-09-12T13:10:31.990Z,99809.13
2022-09-12T13:13:39.023Z,99797.25
2022-09-12T13:16:56.724Z,99801.75
2022-09-12T13:20:27.804Z,99807.12
2022-09-12T13:23:32.549Z,99798.28
2022-09-12T13:26:41.574Z,99794.03
2022-09-12T13:29:44.077Z,99795.81
2022-09-12T13:32:46.867Z,99799.81
2022-09-12T13:36:09.878Z,99796.03
2022-09-12T13:39:28.628Z,99793.88
2022-09-12T13:42:50.146Z,99789.91
2022-09-12T13:45:53.035Z,99777.72
2022-09-12T13:48:56.971Z,99786.19
2022-09-12T13:52:05.753Z,99784.75
2022-09-12T13:55:19.154Z,99772.97
2022-09-12T13:58:26.822Z,99769.78
2022-09-12T14:01:40.735Z,99771.81
2022-09-12T14:05:06.075Z,99770.53
2022-09-12T14:08:09.276Z,99772.06
2022-09-12T14:11:16.632Z,99776.56
2022-09-12T14:14:36.590Z,99769.25
2022-09-12T14:17:39.714Z,99767.91
2022-09-12T14:20:42.767Z,99777.00
2022-09-12T14:23:48.086Z,99774.13
2022-09-12T14:26:56.682Z,99774.41
2022-09-12T14:30:06.777Z,99775.91
2022-09-12T14:33:12.265Z,99780.50
2022-09-12T14:36:22.585Z,99782.03
2022-09-12T14:39:41.638Z,99776.47
2022-09-12T14:42:46.720Z,99772.72
2022-09-12T14:46:02.736Z,99776.94
2022-09-12T14:49:13.726Z,99773.53
2022-09-12T14:52:29.207Z,99771.87
2022-09-12T14:55:34.620Z,99772.28
2022-09-12T14:58:38.199Z,99775.34
2022-09-12T15:01:41.052Z,99768.38
2022-09-12T15:04:47.339Z,99768.06
2022-09-12T15:07:55.714Z,99758.25
2022-09-12T15:10:58.750Z,99760.62
2022-09-12T15:14:13.241Z,99769.69
2022-09-12T15:17:15.752Z,99770.63
2022-09-12T15:20:18.532Z,99765.34
2022-09-12T15:23:40.335Z,99767.66
2022-09-12T15:26:43.098Z,99758.00
2022-09-12T15:29:45.596Z,99767.47
2022-09-12T15:32:48.326Z,99759.94
2022-09-12T15:35:51.522Z,99751.81
2022-09-12T15:38:54.684Z,99753.81
2022-09-12T15:41:57.101Z,99757.59
2022-09-12T15:45:02.532Z,99756.34
2022-09-12T15:48:05.718Z,99757.69
2022-09-12T15:51:15.394Z,99755.38
2022-09-12T15:54:18.564Z,99765.00
2022-09-12T15:57:21.303Z,99765.59
2022-09-12T16:00:24.303Z,99771.28
2022-09-12T16:03:29.099Z,99770.03
2022-09-12T16:06:37.314Z,99765.00
2022-09-12T16:09:40.314Z,99769.34
2022-09-12T16:12:44.626Z,99762.38
2022-09-12T16:15:47.891Z,99762.13
2022-09-12T16:18:50.503Z,99768.56
2022-09-12T16:21:53.722Z,99764.53
2022-09-12T16:24:56.178Z,99768.12
2022-09-12T16:27:59.060Z,99763.69
2022-09-12T16:31:04.431Z,99771.41
2022-09-12T16:34:07.794Z,99764.72
2022-09-12T16:37:10.267Z,99761.47
2022-09-12T16:40:15.297Z,99767.19
2022-09-12T16:43:17.925Z,99768.34
2022-09-12T16:46:23.685Z,99762.34
2022-09-12T16:49:26.229Z,99755.19
2022-09-12T16:52:30.280Z,99766.16
2022-09-12T16:55:32.704Z,99757.31
2022-09-12T16:58:41.807Z,99752.59
2022-09-12T17:01:45.298Z,99755.56
2022-09-12T17:04:48.088Z,99752.78
2022-09-12T17:07:50.559Z,99755.03
2022-09-12T17:10:53.408Z,99757.19
2022-09-12T17:14:05.895Z,99758.31
2022-09-12T17:17:09.440Z,99757.94
2022-09-12T17:20:11.929Z,99767.53
2022-09-12T17:23:14.834Z,99770.97
2022-09-12T17:26:17.278Z,99774.13
2022-09-12T17:29:20.358Z,99775.38
2022-09-12T17:32:22.863Z,99767.69
2022-09-12T17:35:25.688Z,99779.72
2022-09-12T17:38:28.197Z,99789.13
2022-09-12T17:41:31.962Z,99796.81
2022-09-12T17:44:35.892Z,99800.22
2022-09-12T17:47:43.109Z,99808.94
2022-09-12T17:50:45.629Z,99815.63
2022-09-12T17:53:48.947Z,99810.31
2022-09-12T17:56:52.188Z,99818.00
2022-09-12T17:59:54.946Z,99820.72
2022-09-12T18:02:57.994Z,99817.44
2022-09-12T18:06:01.066Z,99820.75
2022-09-12T18:09:06.397Z,99829.25
2022-09-12T18:12:10.137Z,99830.50
2022-09-12T18:15:12.920Z,99837.75
2022-09-12T18:18:15.687Z,99840.66
2022-09-12T18:21:19.678Z,99843.31
2022-09-12T18:24:22.830Z,99842.91
2022-09-12T18:27:25.413Z,99843.53
2022-09-12T18:30:30.125Z,99847.78
2022-09-12T18:33:33.942Z,99841.59
2022-09-12T18:36:36.743Z,99838.44
2022-09-12T18:39:39.302Z,99839.47
2022-09-12T18:42:42.331Z,99840.91
2022-09-12T18:45:44.831Z,99845.03
2022-09-12T18:48:47.912Z,99849.56
2022-09-12T18:51:50.519Z,99850.97
2022-09-12T18:54:53.400Z,99851.53
2022-09-12T18:57:55.887Z,99853.38
2022-09-12T19:00:58.959Z,99849.81
2022-09-12T19:04:04.720Z,99848.97
2022-09-12T19:07:07.545Z,99856.16
2022-09-12T19:10:10.132Z,99853.38
2022-09-12T19:13:12.894Z,99851.25
2022-09-12T19:16:18.567Z,99856.16
2022-09-12T19:19:21.692Z,99859.62
2022-09-12T19:22:24.196Z,99858.50
2022-09-12T19:25:26.999Z,99859.84
2022-09-12T19:28:30.434Z,99868.03
2022-09-12T19:31:33.974Z,99861.63
2022-09-12T19:34:36.504Z,99861.91
2022-09-12T19:37:39.313Z,99861.28
2022-09-12T19:40:42.471Z,99867.59
2022-09-12T19:43:45.212Z,99860.53
2022-09-12T19:46:47.865Z,99866.19
2022-09-12T19:49:51.353Z,99867.75
2022-09-12T19:52:53.853Z,99862.31
2022-09-12T19:56:01.935Z,99857.53
2022-09-12T19:59:04.504Z,99863.41
2022-09-12T20:02:07.926Z,99860.00
2022-09-12T20:05:10.914Z,99860.56
2022-09-12T20:08:13.703Z,99860.22
2022-09-12T20:11:19.072Z,99860.53
2022-09-12T20:14:22.237Z,99856.91
2022-09-12T20:17:25.018Z,99854.53
2022-09-12T20:20:27.698Z,99848.53
2022-09-12T20:23:30.542Z,99837.12
2022-09-12T20:26:33.222Z,99842.84
2022-09-12T20:29:36.055Z,99842.19
2022-09-12T20:32:38.579Z,99852.88
2022-09-12T20:35:41.448Z,99847.91
2022-09-12T20:38:52.143Z,99856.31
2022-09-12T20:41:55.347Z,99849.31
2022-09-12T20:44:57.836Z,99855.19
2022-09-12T20:48:00.697Z,99864.94
2022-09-12T20:51:03.885Z,99867.16
2022-09-12T20:54:07.354Z,99876.53
2022-09-12T20:57:09.857Z,99874.59
2022-09-12T21:00:13.024Z,99877.63
2022-09-12T21:03:15.962Z,99880.22
2022-09-12T21:06:19.317Z,99880.66
2022-09-12T21:09:21.862Z,99883.59
2022-09-12T21:12:24.709Z,99882.28
2022-09-12T21:15:27.352Z,99886.03
2022-09-12T21:18:30.661Z,99883.28
2022-09-12T21:21:33.202Z,99889.63
2022-09-12T21:24:35.921Z,99882.97
2022-09-12T21:27:38.477Z,99894.84
2022-09-12T21:30:44.203Z,99906.22
2022-09-12T21:33:46.775Z,99902.91
2022-09-12T21:36:49.593Z,99909.16
2022-09-12T21:39:52.093Z,99908.50
2022-09-12T21:42:54.821Z,99911.94
2022-09-12T21:45:58.877Z,99911.47
2022-09-12T21:49:02.301Z,99906.97
2022-09-12T21:52:04.957Z,99922.22
2022-09-12T21:55:08.686Z,99919.41
2022-09-12T21:58:11.267Z,99922.44
2022-09-12T22:01:14.082Z,99923.44
2022-09-12T22:04:16.955Z,99920.47
2022-09-12T22:07:19.443Z,99930.50
2022-09-12T22:10:22.445Z,99930.81
2022-09-12T22:13:25.833Z,99934.31
2022-09-12T22:16:28.598Z,99936.81
2022-09-12T22:19:31.669Z,99939.97
2022-09-12T22:22:56.695Z,99934.66
2022-09-12T22:26:01.241Z,99942.53
2022-09-12T22:29:04.144Z,99939.91
2022-09-12T22:32:06.652Z,99930.53
2022-09-12T22:35:09.544Z,99937.56
2022-09-12T22:38:12.140Z,99940.22
2022-09-12T22:41:15.162Z,99931.75
2022-09-12T22:44:17.868Z,99931.25
2022-09-12T22:47:20.692Z,99918.78
2022-09-12T22:50:23.280Z,99922.13
2022-09-12T22:53:26.248Z,99929.47
2022-09-12T22:56:28.738Z,99924.81
2022-09-12T22:59:31.756Z,99916.47
2022-09-12T23:02:34.939Z,99923.34
2022-09-12T23:05:37.746Z,99924.00
2022-09-12T23:08:40.344Z,99923.97
2022-09-12T23:11:43.103Z,99925.81
2022-09-12T23:14:46.711Z,99921.00
2022-09-12T23:17:49.751Z,99926.16
2022-09-12T23:21:04.620Z,99919.84
2022-09-12T23:24:07.401Z,99922.50
2022-09-12T23:27:09.947Z,99928.34
2022-09-12T23:30:13.042Z,99923.84
2022-09-12T23:33:15.568Z,99916.84
2022-09-12T23:36:18.578Z,99916.84
2022-09-12T23:39:21.138Z,99922.69
2022-09-12T23:42:23.847Z,99923.69
2022-09-12T23:45:26.313Z,99922.00
2022-09-12T23:48:29.189Z,99922.00
2022-09-12T23:51:31.737Z,99918.53
2022-09-12T23:54:36.575Z,99921.94
2022-09-12T23:57:39.421Z,99925.09
